Wetterdaten: Woche 06.12.04 - 12.12.04 (KW50)
Datum Zeit Temperatur Luftfeuchte Luftdruck Niederschlag Wind Richtung Taupunkt Windchill
06.12.2004 00:00 3.0 C 74 % 1030.9 hPa 0.0 l/m 9.1 km/h (2 Bft) O-SO -1.1 C 0.8 C
06.12.2004 01:00 2.8 C 75 % 1030.6 hPa 0.0 l/m 7.5 km/h (2 Bft) O-SO -1.2 C 1.0 C
06.12.2004 02:00 2.7 C 75 % 1030.4 hPa 0.0 l/m 0.3 km/h (0 Bft) N-NO -1.2 C 2.7 C
06.12.2004 03:00 2.6 C 77 % 1029.6 hPa 0.0 l/m 1.5 km/h (1 Bft) O-SO -1.1 C 2.2 C
06.12.2004 04:00 2.6 C 76 % 1029.7 hPa 0.0 l/m 1.5 km/h (1 Bft) O -1.2 C 2.3 C
06.12.2004 05:00 2.5 C 76 % 1029.7 hPa 0.0 l/m 2.5 km/h (1 Bft) O-SO -1.2 C 2.0 C
06.12.2004 06:00 2.6 C 72 % 1029.7 hPa 0.0 l/m 4.5 km/h (1 Bft) O-SO -2.0 C 1.5 C
06.12.2004 07:00 2.7 C 73 % 1029.8 hPa 0.0 l/m 4.0 km/h (1 Bft) O-SO -1.6 C 1.6 C
06.12.2004 08:00 2.8 C 74 % 1030.7 hPa 0.0 l/m 2.3 km/h (1 Bft) O-NO -1.3 C 2.3 C
06.12.2004 09:00 3.0 C 74 % 1030.6 hPa 0.0 l/m 2.0 km/h (1 Bft) O -1.1 C 2.6 C
06.12.2004 10:00 3.5 C 73 % 1030.6 hPa 0.0 l/m 2.5 km/h (1 Bft) O-SO -0.9 C 3.0 C
06.12.2004 11:00 4.1 C 70 % 1030.5 hPa 0.0 l/m 2.6 km/h (1 Bft) O -0.9 C 3.6 C
06.12.2004 12:00 5.0 C 66 % 1029.4 hPa 0.0 l/m 6.0 km/h (2 Bft) O-SO -0.8 C 3.9 C
06.12.2004 13:00 5.2 C 62 % 1029.2 hPa 0.0 l/m 12.4 km/h (3 Bft) O-SO -1.5 C 2.6 C
06.12.2004 14:00 5.6 C 60 % 1028.2 hPa 0.0 l/m 21.3 km/h (4 Bft) O-SO -1.5 C 1.7 C
06.12.2004 15:00 4.8 C 63 % 1028.3 hPa 0.0 l/m 21.7 km/h (4 Bft) O-SO -1.7 C 0.7 C
06.12.2004 16:00 3.5 C 69 % 1029.1 hPa 0.0 l/m 10.8 km/h (2 Bft) O-SO -1.8 C 0.8 C
06.12.2004 17:00 2.8 C 73 % 1029.6 hPa 0.0 l/m 4.1 km/h (1 Bft) O -1.5 C 1.9 C
06.12.2004 18:00 3.7 C 70 % 1029.5 hPa 0.0 l/m 1.1 km/h (1 Bft) N-NO -1.3 C 3.4 C
06.12.2004 19:00 3.6 C 71 % 1029.5 hPa 0.0 l/m 0.1 km/h (0 Bft) NO -1.2 C 3.6 C
06.12.2004 20:00 3.4 C 72 % 1030.6 hPa 0.0 l/m 0.0 km/h (0 Bft) N -1.1 C 3.4 C
06.12.2004 21:00 3.4 C 74 % 1030.6 hPa 0.0 l/m 0.3 km/h (0 Bft) O-NO -0.9 C 3.4 C
06.12.2004 22:00 3.2 C 73 % 1030.4 hPa 0.0 l/m 2.7 km/h (1 Bft) O -1.1 C 2.7 C
06.12.2004 23:00 3.0 C 74 % 1029.6 hPa 0.0 l/m 1.4 km/h (1 Bft) O -1.1 C 2.8 C
07.12.2004 00:00 2.8 C 75 % 1029.6 hPa 0.0 l/m 1.2 km/h (1 Bft) O -1.1 C 2.6 C
07.12.2004 01:00 2.6 C 76 % 1029.4 hPa 0.0 l/m 2.1 km/h (1 Bft) O-SO -1.2 C 2.2 C
07.12.2004 02:00 2.3 C 77 % 1028.8 hPa 0.0 l/m 2.2 km/h (1 Bft) O-NO -1.2 C 1.9 C
07.12.2004 03:00 2.2 C 78 % 1028.7 hPa 0.0 l/m 2.4 km/h (1 Bft) O-SO -1.3 C 1.8 C
07.12.2004 04:00 1.9 C 80 % 1029.2 hPa 0.0 l/m 2.9 km/h (1 Bft) O-SO -1.2 C 1.2 C
07.12.2004 05:00 1.9 C 81 % 1029.7 hPa 0.0 l/m 0.4 km/h (0 Bft) O-SO -1.0 C 1.9 C
07.12.2004 06:00 1.9 C 81 % 1029.8 hPa 0.0 l/m 0.1 km/h (0 Bft) N -1.1 C 1.9 C
07.12.2004 07:00 1.8 C 81 % 1029.8 hPa 0.0 l/m 0.0 km/h (0 Bft) N -1.1 C 1.8 C
07.12.2004 08:00 1.7 C 81 % 1029.8 hPa 0.0 l/m 0.0 km/h (0 Bft) N -1.2 C 1.7 C
07.12.2004 09:00 1.8 C 81 % 1029.8 hPa 0.0 l/m 0.4 km/h (0 Bft) O -1.1 C 1.7 C
07.12.2004 10:00 2.2 C 80 % 1030.0 hPa 0.0 l/m 0.0 km/h (0 Bft) N -0.8 C 2.2 C
07.12.2004 11:00 2.4 C 79 % 1029.7 hPa 0.0 l/m 2.9 km/h (1 Bft) O-SO -0.8 C 1.8 C
07.12.2004 12:00 2.5 C 78 % 1029.7 hPa 0.0 l/m 8.2 km/h (2 Bft) O-SO -0.8 C 0.2 C
07.12.2004 13:00 2.5 C 78 % 1029.7 hPa 0.0 l/m 6.8 km/h (2 Bft) O-SO -1.0 C 0.7 C
07.12.2004 14:00 2.5 C 78 % 1028.9 hPa 0.0 l/m 4.9 km/h (1 Bft) O-SO -0.9 C 1.3 C
07.12.2004 15:00 2.1 C 80 % 1028.7 hPa 0.0 l/m 7.1 km/h (2 Bft) O-SO -1.0 C 0.1 C
07.12.2004 16:00 1.9 C 81 % 1028.7 hPa 0.0 l/m 2.5 km/h (1 Bft) O-SO -1.0 C 1.3 C
07.12.2004 17:00 1.6 C 82 % 1028.8 hPa 0.0 l/m 0.6 km/h (0 Bft) O -1.1 C 1.5 C
07.12.2004 18:00 1.3 C 84 % 1029.7 hPa 0.0 l/m 3.0 km/h (1 Bft) O-SO -1.0 C 0.5 C
07.12.2004 19:00 1.2 C 85 % 1029.9 hPa 0.0 l/m 2.7 km/h (1 Bft) O-SO -1.1 C 0.4 C
07.12.2004 20:00 0.9 C 85 % 1029.9 hPa 0.0 l/m 3.7 km/h (1 Bft) O-SO -1.3 C -0.1 C
07.12.2004 21:00 0.6 C 86 % 1029.9 hPa 0.0 l/m 1.3 km/h (1 Bft) N-NO -1.5 C 0.3 C
07.12.2004 22:00 0.4 C 85 % 1030.0 hPa 0.0 l/m 0.9 km/h (0 Bft) O-NO -1.7 C 0.2 C
07.12.2004 23:00 0.2 C 86 % 1030.0 hPa 0.0 l/m 0.2 km/h (0 Bft) O-SO -1.9 C 0.2 C
08.12.2004 00:00 0.1 C 87 % 1030.0 hPa 0.0 l/m 0.9 km/h (0 Bft) NO -1.9 C -0.2 C
08.12.2004 01:00 -0.0 C 87 % 1030.0 hPa 0.0 l/m 2.6 km/h (1 Bft) O-SO -2.0 C -0.9 C
08.12.2004 02:00 -0.2 C 86 % 1030.1 hPa 0.0 l/m 0.0 km/h (0 Bft) N -2.2 C -0.2 C
08.12.2004 03:00 -0.4 C 86 % 1030.1 hPa 0.0 l/m 0.2 km/h (0 Bft) N -2.4 C -0.4 C
08.12.2004 04:00 -0.4 C 85 % 1030.1 hPa 0.0 l/m 0.7 km/h (0 Bft) N-NO -2.5 C -0.5 C
08.12.2004 05:00 -0.5 C 85 % 1030.1 hPa 0.0 l/m 3.4 km/h (1 Bft) O-SO -2.7 C -1.6 C
08.12.2004 06:00 -0.5 C 85 % 1030.1 hPa 0.0 l/m 0.4 km/h (0 Bft) O -2.7 C -0.6 C
08.12.2004 07:00 -0.6 C 84 % 1030.1 hPa 0.0 l/m 1.0 km/h (0 Bft) O -2.9 C -0.8 C
08.12.2004 08:00 -0.5 C 84 % 1030.4 hPa 0.0 l/m 0.3 km/h (0 Bft) NO -2.9 C -0.5 C
08.12.2004 09:00 -0.2 C 82 % 1030.2 hPa 0.0 l/m 3.5 km/h (1 Bft) O -2.8 C -1.1 C
08.12.2004 10:00 0.1 C 80 % 1030.2 hPa 0.0 l/m 7.3 km/h (2 Bft) O -2.9 C -2.0 C
08.12.2004 11:00 0.4 C 80 % 1031.0 hPa 0.0 l/m 2.6 km/h (1 Bft) O -2.7 C -0.3 C
08.12.2004 12:00 0.6 C 78 % 1029.9 hPa 0.0 l/m 2.5 km/h (1 Bft) O -2.8 C -0.1 C
08.12.2004 13:00 0.9 C 76 % 1029.5 hPa 0.0 l/m 9.1 km/h (2 Bft) O-SO -2.7 C -1.5 C
08.12.2004 14:00 1.0 C 74 % 1028.6 hPa 0.0 l/m 16.8 km/h (3 Bft) O-SO -3.0 C -3.4 C
08.12.2004 15:00 1.1 C 74 % 1028.0 hPa 0.0 l/m 9.7 km/h (2 Bft) O-SO -2.9 C -1.8 C
08.12.2004 16:00 0.7 C 77 % 1028.6 hPa 0.0 l/m 4.5 km/h (1 Bft) O-SO -2.8 C -0.5 C
08.12.2004 17:00 0.7 C 79 % 1028.9 hPa 0.0 l/m 1.6 km/h (1 Bft) O-SO -2.6 C 0.2 C
08.12.2004 18:00 0.8 C 77 % 1028.9 hPa 0.0 l/m 4.1 km/h (1 Bft) O -2.8 C -0.2 C
08.12.2004 19:00 0.6 C 77 % 1028.9 hPa 0.0 l/m 1.1 km/h (0 Bft) N-NO -2.9 C 0.5 C
08.12.2004 20:00 0.4 C 77 % 1028.9 hPa 0.0 l/m 1.7 km/h (1 Bft) NO -3.2 C 0.1 C
08.12.2004 21:00 0.2 C 77 % 1029.0 hPa 0.0 l/m 3.6 km/h (1 Bft) NO -3.3 C -0.7 C
08.12.2004 22:00 0.2 C 78 % 1029.0 hPa 0.0 l/m 1.0 km/h (0 Bft) NO -3.2 C 0.0 C
08.12.2004 23:00 0.0 C 79 % 1029.0 hPa 0.0 l/m 1.6 km/h (1 Bft) NO -3.1 C -0.1 C
09.12.2004 00:00 -0.2 C 80 % 1029.0 hPa 0.0 l/m 4.8 km/h (1 Bft) O -3.2 C -1.4 C
09.12.2004 01:00 -0.2 C 80 % 1028.0 hPa 0.0 l/m 2.0 km/h (1 Bft) O-SO -3.2 C -0.7 C
09.12.2004 02:00 -0.1 C 80 % 1028.0 hPa 0.0 l/m 3.3 km/h (1 Bft) O -3.1 C -0.9 C
09.12.2004 03:00 -0.1 C 80 % 1028.0 hPa 0.0 l/m 3.5 km/h (1 Bft) NO -3.2 C -1.0 C
09.12.2004 04:00 -0.1 C 80 % 1027.4 hPa 0.0 l/m 2.6 km/h (1 Bft) O-NO -3.1 C -0.7 C
09.12.2004 05:00 -0.1 C 80 % 1026.9 hPa 0.0 l/m 2.5 km/h (1 Bft) O -3.1 C -0.7 C
09.12.2004 06:00 0.0 C 80 % 1026.9 hPa 0.0 l/m 0.9 km/h (0 Bft) N-NO -3.0 C -0.2 C
09.12.2004 07:00 -0.1 C 81 % 1026.9 hPa 0.0 l/m 0.8 km/h (0 Bft) O -2.9 C -0.2 C
09.12.2004 08:00 -0.0 C 81 % 1026.9 hPa 0.0 l/m 2.2 km/h (1 Bft) O -2.9 C -0.6 C
09.12.2004 09:00 0.2 C 80 % 1027.4 hPa 0.0 l/m 1.2 km/h (1 Bft) O -2.8 C -0.1 C
09.12.2004 10:00 0.4 C 79 % 1027.8 hPa 0.0 l/m 3.6 km/h (1 Bft) O-SO -2.8 C -0.7 C
09.12.2004 11:00 0.6 C 78 % 1027.0 hPa 0.0 l/m 1.4 km/h (1 Bft) NO -2.7 C 0.4 C
09.12.2004 12:00 0.9 C 78 % 1026.8 hPa 0.0 l/m 2.7 km/h (1 Bft) O-SO -2.6 C 0.2 C
09.12.2004 13:00 0.8 C 77 % 1026.0 hPa 0.0 l/m 1.7 km/h (1 Bft) O -2.8 C 0.4 C
09.12.2004 14:00 0.7 C 77 % 1025.8 hPa 0.0 l/m 1.0 km/h (0 Bft) O -2.9 C 0.5 C
09.12.2004 15:00 0.6 C 78 % 1025.5 hPa 0.0 l/m 1.9 km/h (1 Bft) O -2.9 C 0.4 C
09.12.2004 16:00 0.3 C 79 % 1025.8 hPa 0.0 l/m 3.4 km/h (1 Bft) O -2.8 C -0.6 C
09.12.2004 17:00 0.1 C 81 % 1025.9 hPa 0.0 l/m 6.6 km/h (2 Bft) O-SO -2.7 C -1.8 C
09.12.2004 18:00 0.2 C 81 % 1025.8 hPa 0.0 l/m 3.1 km/h (1 Bft) O -2.7 C -0.6 C
09.12.2004 19:00 0.2 C 82 % 1025.9 hPa 0.0 l/m 0.3 km/h (0 Bft) O-NO -2.6 C 0.2 C
09.12.2004 20:00 0.1 C 82 % 1025.9 hPa 0.0 l/m 0.0 km/h (0 Bft) N -2.6 C 0.1 C
09.12.2004 21:00 0.1 C 83 % 1025.9 hPa 0.0 l/m 0.1 km/h (0 Bft) N -2.5 C 0.1 C
09.12.2004 22:00 0.1 C 83 % 1025.9 hPa 0.0 l/m 0.1 km/h (0 Bft) N -2.4 C 0.1 C
09.12.2004 23:00 0.1 C 84 % 1025.9 hPa 0.0 l/m 0.6 km/h (0 Bft) O -2.3 C -0.0 C
10.12.2004 00:00 0.1 C 85 % 1026.0 hPa 0.0 l/m 5.2 km/h (1 Bft) O-SO -2.1 C -1.3 C
10.12.2004 01:00 0.1 C 86 % 1025.9 hPa 0.0 l/m 0.8 km/h (0 Bft) O-SO -2.0 C -0.1 C
10.12.2004 02:00 0.1 C 86 % 1025.9 hPa 0.0 l/m 0.9 km/h (0 Bft) O-SO -2.0 C -0.1 C
10.12.2004 03:00 -0.0 C 87 % 1026.0 hPa 0.0 l/m 4.7 km/h (1 Bft) O-SO -1.9 C -1.4 C
10.12.2004 04:00 -0.1 C 87 % 1025.9 hPa 0.0 l/m 1.8 km/h (1 Bft) O-SO -1.9 C -0.7 C
10.12.2004 05:00 -0.1 C 88 % 1025.9 hPa 0.0 l/m 0.5 km/h (0 Bft) O-SO -1.8 C -0.2 C
10.12.2004 06:00 -0.1 C 88 % 1025.9 hPa 0.0 l/m 1.8 km/h (1 Bft) O-SO -1.8 C -0.6 C
10.12.2004 07:00 -0.2 C 89 % 1026.5 hPa 0.0 l/m 3.1 km/h (1 Bft) O-SO -1.8 C -1.1 C
10.12.2004 08:00 -0.2 C 89 % 1026.6 hPa 0.0 l/m 4.5 km/h (1 Bft) O-SO -1.8 C -1.6 C
10.12.2004 09:00 -0.0 C 89 % 1026.9 hPa 0.0 l/m 4.3 km/h (1 Bft) O-SO -1.6 C -1.4 C
10.12.2004 10:00 0.2 C 87 % 1026.9 hPa 0.0 l/m 4.6 km/h (1 Bft) O-SO -1.8 C -1.3 C
10.12.2004 11:00 0.3 C 86 % 1026.9 hPa 0.0 l/m 1.7 km/h (1 Bft) SO -1.7 C -0.2 C
10.12.2004 12:00 0.6 C 85 % 1026.8 hPa 0.0 l/m 1.9 km/h (1 Bft) O-SO -1.6 C 0.2 C
10.12.2004 13:00 0.8 C 84 % 1026.1 hPa 0.0 l/m 1.5 km/h (1 Bft) O-SO -1.7 C 0.5 C
10.12.2004 14:00 0.8 C 82 % 1025.7 hPa 0.0 l/m 0.3 km/h (0 Bft) O-SO -1.9 C 0.8 C
10.12.2004 15:00 0.7 C 83 % 1025.8 hPa 0.0 l/m 0.0 km/h (0 Bft) N -1.9 C 0.7 C
10.12.2004 16:00 0.4 C 84 % 1026.5 hPa 0.0 l/m 0.4 km/h (0 Bft) SO -2.0 C 0.4 C
10.12.2004 17:00 -0.0 C 86 % 1026.9 hPa 0.0 l/m 1.8 km/h (1 Bft) O -2.1 C -0.5 C
10.12.2004 18:00 -0.1 C 87 % 1026.9 hPa 0.0 l/m 0.0 km/h (0 Bft) N -2.0 C -0.1 C
10.12.2004 19:00 -0.1 C 88 % 1026.9 hPa 0.0 l/m 0.1 km/h (0 Bft) O-NO -1.8 C -0.1 C
10.12.2004 20:00 -0.2 C 90 % 1026.9 hPa 0.0 l/m 1.2 km/h (1 Bft) O-SO -1.6 C -0.6 C
10.12.2004 21:00 -0.3 C 91 % 1027.5 hPa 0.0 l/m 4.8 km/h (1 Bft) O-SO -1.5 C -1.7 C
10.12.2004 22:00 -0.3 C 92 % 1028.0 hPa 0.0 l/m 0.4 km/h (0 Bft) O-SO -1.5 C -0.3 C
10.12.2004 23:00 -0.4 C 92 % 1028.0 hPa 0.0 l/m 2.2 km/h (1 Bft) O-SO -1.5 C -1.1 C
11.12.2004 00:00 -0.5 C 92 % 1028.0 hPa 0.0 l/m 1.4 km/h (1 Bft) O -1.7 C -0.8 C
11.12.2004 01:00 -0.6 C 92 % 1027.6 hPa 0.0 l/m 1.5 km/h (1 Bft) O-SO -1.7 C -1.0 C
11.12.2004 02:00 -0.6 C 92 % 1027.8 hPa 0.0 l/m 0.7 km/h (0 Bft) SO -1.8 C -0.7 C
11.12.2004 03:00 -0.7 C 93 % 1028.1 hPa 0.0 l/m 0.1 km/h (0 Bft) O -1.8 C -0.7 C
11.12.2004 04:00 -0.7 C 93 % 1027.4 hPa 0.0 l/m 0.1 km/h (0 Bft) N -1.7 C -0.7 C
11.12.2004 05:00 -0.9 C 93 % 1027.4 hPa 0.0 l/m 4.7 km/h (1 Bft) O-SO -1.9 C -2.4 C
11.12.2004 06:00 -1.0 C 93 % 1027.6 hPa 0.0 l/m 0.2 km/h (0 Bft) O-SO -2.0 C -1.0 C
11.12.2004 07:00 -1.0 C 92 % 1028.1 hPa 0.0 l/m 0.7 km/h (0 Bft) O-SO -2.2 C -1.2 C
11.12.2004 08:00 -1.1 C 92 % 1028.1 hPa 0.0 l/m 2.8 km/h (1 Bft) O-SO -2.2 C -2.0 C
11.12.2004 09:00 -1.0 C 90 % 1028.3 hPa 0.0 l/m 1.4 km/h (1 Bft) O-SO -2.3 C -1.4 C
11.12.2004 10:00 -0.7 C 89 % 1029.1 hPa 0.0 l/m 0.6 km/h (0 Bft) O-NO -2.3 C -0.8 C
11.12.2004 11:00 -0.4 C 88 % 1029.0 hPa 0.0 l/m 2.1 km/h (1 Bft) O-SO -2.2 C -1.0 C
11.12.2004 12:00 -0.5 C 86 % 1028.0 hPa 0.0 l/m 0.1 km/h (0 Bft) NO -2.5 C -0.5 C
11.12.2004 13:00 -0.2 C 85 % 1028.0 hPa 0.0 l/m 1.1 km/h (1 Bft) O-SO -2.5 C -0.5 C
11.12.2004 14:00 -0.1 C 84 % 1028.0 hPa 0.0 l/m 0.0 km/h (0 Bft) N -2.6 C -0.1 C
11.12.2004 15:00 -0.1 C 84 % 1028.0 hPa 0.0 l/m 0.9 km/h (0 Bft) O-SO -2.5 C -0.4 C
11.12.2004 16:00 -0.3 C 85 % 1028.8 hPa 0.0 l/m 2.1 km/h (1 Bft) O-SO -2.5 C -0.8 C
11.12.2004 17:00 -0.4 C 86 % 1029.0 hPa 0.0 l/m 0.6 km/h (0 Bft) O-SO -2.4 C -0.6 C
11.12.2004 18:00 -0.5 C 87 % 1029.1 hPa 0.0 l/m 0.0 km/h (0 Bft) N -2.4 C -0.5 C
11.12.2004 19:00 -0.6 C 87 % 1029.1 hPa 0.0 l/m 0.2 km/h (0 Bft) N -2.5 C -0.6 C
11.12.2004 20:00 -0.9 C 88 % 1029.1 hPa 0.0 l/m 0.8 km/h (0 Bft) O -2.6 C -1.1 C
11.12.2004 21:00 -1.1 C 88 % 1029.2 hPa 0.0 l/m 1.1 km/h (0 Bft) O -2.8 C -1.3 C
11.12.2004 22:00 -1.1 C 88 % 1029.2 hPa 0.0 l/m 2.0 km/h (1 Bft) O-SO -2.9 C -1.4 C
11.12.2004 23:00 -1.3 C 89 % 1029.2 hPa 0.0 l/m 0.2 km/h (0 Bft) O-SO -2.9 C -1.3 C
12.12.2004 00:00 -1.4 C 90 % 1029.3 hPa 0.0 l/m 0.1 km/h (0 Bft) N -2.8 C -1.4 C
12.12.2004 01:00 -1.5 C 90 % 1029.5 hPa 0.0 l/m 0.4 km/h (0 Bft) O -2.9 C -1.5 C
12.12.2004 02:00 -1.4 C 89 % 1030.0 hPa 0.0 l/m 2.8 km/h (1 Bft) O -2.9 C -2.2 C
12.12.2004 03:00 -1.4 C 88 % 1030.2 hPa 0.0 l/m 3.0 km/h (1 Bft) O-SO -3.1 C -2.1 C
12.12.2004 04:00 -1.2 C 89 % 1029.9 hPa 0.0 l/m 0.6 km/h (0 Bft) O-SO -2.8 C -1.2 C
12.12.2004 05:00 -1.1 C 89 % 1030.2 hPa 0.0 l/m 1.7 km/h (1 Bft) O-SO -2.7 C -1.6 C
12.12.2004 06:00 -1.0 C 88 % 1030.2 hPa 0.0 l/m 0.8 km/h (0 Bft) O-SO -2.8 C -1.3 C
12.12.2004 07:00 -1.0 C 88 % 1030.2 hPa 0.0 l/m 2.3 km/h (1 Bft) O-SO -2.7 C -1.6 C
12.12.2004 08:00 -1.0 C 88 % 1030.8 hPa 0.0 l/m 4.0 km/h (1 Bft) O-SO -2.8 C -2.4 C
12.12.2004 09:00 -0.8 C 86 % 1031.2 hPa 0.0 l/m 0.2 km/h (0 Bft) O -2.9 C -0.8 C
12.12.2004 10:00 -0.7 C 84 % 1031.2 hPa 0.0 l/m 0.0 km/h (0 Bft) N -3.1 C -0.7 C
12.12.2004 11:00 -0.3 C 82 % 1031.1 hPa 0.0 l/m 0.5 km/h (0 Bft) O -3.0 C -0.3 C
12.12.2004 12:00 -0.2 C 81 % 1030.1 hPa 0.0 l/m 1.0 km/h (0 Bft) O-SO -3.1 C -0.4 C
12.12.2004 13:00 0.3 C 79 % 1030.0 hPa 0.0 l/m 3.2 km/h (1 Bft) O-SO -2.9 C -0.6 C
12.12.2004 14:00 0.3 C 78 % 1029.7 hPa 0.0 l/m 1.0 km/h (0 Bft) SO -3.1 C 0.0 C
12.12.2004 15:00 0.2 C 79 % 1029.7 hPa 0.0 l/m 2.3 km/h (1 Bft) O-SO -3.0 C -0.5 C
12.12.2004 16:00 -0.3 C 82 % 1030.1 hPa 0.0 l/m 0.4 km/h (0 Bft) NO -3.0 C -0.3 C
12.12.2004 17:00 -0.5 C 83 % 1030.1 hPa 0.0 l/m 2.6 km/h (1 Bft) O-SO -3.0 C -1.3 C
12.12.2004 18:00 -0.6 C 84 % 1030.3 hPa 0.0 l/m 0.0 km/h (0 Bft) N -3.0 C -0.6 C
12.12.2004 19:00 -0.6 C 85 % 1031.2 hPa 0.0 l/m 0.0 km/h (0 Bft) N -2.9 C -0.6 C
12.12.2004 20:00 -0.8 C 85 % 1031.2 hPa 0.0 l/m 0.7 km/h (0 Bft) O -2.9 C -1.0 C
12.12.2004 21:00 -0.9 C 86 % 1031.2 hPa 0.0 l/m 0.7 km/h (0 Bft) O -2.9 C -1.1 C
12.12.2004 22:00 -1.1 C 86 % 1031.2 hPa 0.0 l/m 0.1 km/h (0 Bft) N -3.2 C -1.1 C
12.12.2004 23:00 -1.2 C 86 % 1031.3 hPa 0.0 l/m 0.4 km/h (0 Bft) O -3.2 C -1.3 C
Min-Datum _ 12.12.04 06.12.04 09.12.04 - 06.12.04 - 08.12.04 12.12.04
_ Min-Zeit 00:26 14:17 15:41 - 02:05 - 20:35 08:26
Minimum _ -1.5 C 58 % 1024.8 hPa - 0.0 km/h (0 Bft) - -3.4 C -5.2 C
Max-Datum _ 06.12.04 11.12.04 06.12.04 06.12.04 06.12.04 - 06.12.04 06.12.04
_ Max-Zeit 14:08 04:05 00:17 00:02 14:26 - 12:53 12:56
Maximum _ 6.1 C 94 % 1031.7 hPa 0.0 l/m 29.6 km/h
O-SO (5 Bft)
- -0.4 C 5.5 C
Durchschnitt _ 0.6 C 82 % 1028.7 hPa #0.0 l/m 2.5 km/h (1 Bft) O-SO -2.1 C 0.0 C

Durchschnitt Minimum Temp.0.5 C
Durchschnitt Maximum Temp.0.8 C
© Kaiko 2004